Capitol Logistics 322




KMKE
General Mitchell International Airport
Milwaukee,
KCVG
Cincinnati/Northern Kentucky International Airport
Covington, Kentucky

Activity Log

Date Flight Route Aircraft Duration
No Flights Yet

Route Details

Aircraft Information
Group: Narrowbodies
Types: B738,B752
Route Data
Demand: M
Distance: 276nm
Duration: 0h 50m
Recm'd Route: UECKR6 DELHI CEGRM5
Origin Wx: KMKE 270518Z 01014G20KT 8SM -RA BKN003 OVC031 11/10 A2976 RMK AO2 WSHFT 0441 P0007 T01110100 $
Dest. Wx: KCVG 270518Z 23008KT 10SM FEW009 BKN042 OVC050 17/16 A2982 RMK AO2 RAB0453E05 P0000 T01720161 $
Notes:

Financial History
Total Freight: 0lbs
Average Load: 0lbs/flt
Fuel Used: 0lbs
Avg. Fuel Used: 0lbs/flt
Fuel Expense: $0
Avg. Fuel Expense: $0
Avg. Fuel Cost: $0/lbs
Total Gross Income: $0
Pilot Pay: $0
Total Expenses: $0
Total Revenue: $0
Average Revenue: $0